createdAt,value
2018-03-25T00:00:33.443Z,26.65
2018-03-25T00:03:00.953Z,25.65
2018-03-25T00:05:28.394Z,23.45
2018-03-25T00:07:55.984Z,23.95
2018-03-25T00:10:23.449Z,24.75
2018-03-25T00:12:50.947Z,22.37
2018-03-25T00:15:18.398Z,26.00
2018-03-25T00:17:45.856Z,23.15
2018-03-25T00:20:13.351Z,24.08
2018-03-25T00:22:40.828Z,27.33
2018-03-25T00:25:08.322Z,24.48
2018-03-25T00:27:35.791Z,23.48
2018-03-25T00:30:03.382Z,23.73
2018-03-25T00:32:30.844Z,24.08
2018-03-25T00:34:58.315Z,23.95
2018-03-25T00:37:26.895Z,24.20
2018-03-25T00:39:54.359Z,24.55
2018-03-25T00:42:21.814Z,24.90
2018-03-25T00:44:49.252Z,26.73
2018-03-25T00:47:16.717Z,26.05
2018-03-25T00:49:44.161Z,25.12
2018-03-25T00:52:11.610Z,24.48
2018-03-25T00:54:39.050Z,25.90
2018-03-25T00:57:06.523Z,25.25
2018-03-25T00:59:34.006Z,24.90
2018-03-25T01:02:01.486Z,24.25
2018-03-25T01:04:28.955Z,24.05
2018-03-25T01:06:56.400Z,25.27
2018-03-25T01:09:24.703Z,24.50
2018-03-25T01:11:52.189Z,25.52
2018-03-25T01:14:19.663Z,25.15
2018-03-25T01:16:47.089Z,24.85
2018-03-25T01:19:14.531Z,24.58
2018-03-25T01:21:41.977Z,23.15
2018-03-25T01:24:09.426Z,24.00
2018-03-25T01:26:36.874Z,24.55
2018-03-25T01:29:04.334Z,26.50
2018-03-25T01:31:31.890Z,24.75
2018-03-25T01:33:59.274Z,26.62
2018-03-25T01:36:26.731Z,25.33
2018-03-25T01:38:54.166Z,24.48
2018-03-25T01:41:21.600Z,24.10
2018-03-25T01:43:49.062Z,26.45
2018-03-25T01:46:16.499Z,25.05
2018-03-25T01:48:43.954Z,24.52
2018-03-25T01:51:11.390Z,24.02
2018-03-25T01:53:38.841Z,25.05
2018-03-25T01:56:06.278Z,23.95
2018-03-25T01:58:33.725Z,24.98
2018-03-25T02:01:01.159Z,24.50
2018-03-25T02:03:28.595Z,24.42
2018-03-25T02:05:56.105Z,24.70
2018-03-25T02:08:23.553Z,23.85
2018-03-25T02:10:50.998Z,23.15
2018-03-25T02:13:18.442Z,24.30
2018-03-25T02:15:46.015Z,23.80
2018-03-25T02:18:13.463Z,24.23
2018-03-25T02:20:40.919Z,25.33
2018-03-25T02:23:08.371Z,23.90
2018-03-25T02:25:35.805Z,22.67
2018-03-25T02:28:03.242Z,23.83
2018-03-25T02:30:30.707Z,25.17
2018-03-25T02:32:58.158Z,22.83
2018-03-25T02:35:25.659Z,24.37
2018-03-25T02:37:53.774Z,24.02
2018-03-25T02:40:21.239Z,22.73
2018-03-25T02:42:48.684Z,24.70
2018-03-25T02:45:16.123Z,23.62
2018-03-25T02:47:43.578Z,25.05
2018-03-25T02:50:11.066Z,25.67
2018-03-25T02:52:38.519Z,24.20
2018-03-25T02:55:05.966Z,23.85
2018-03-25T02:57:33.417Z,23.45
2018-03-25T03:00:00.859Z,23.50
2018-03-25T03:02:28.329Z,25.15
2018-03-25T03:04:55.796Z,21.23
2018-03-25T03:07:23.287Z,22.27
2018-03-25T03:09:50.726Z,24.15
2018-03-25T03:12:18.173Z,26.95
2018-03-25T03:14:45.617Z,23.38
2018-03-25T03:17:13.069Z,23.17
2018-03-25T03:19:40.519Z,22.30
2018-03-25T03:22:07.964Z,23.83
2018-03-25T03:24:35.420Z,23.12
2018-03-25T03:27:02.862Z,23.65
2018-03-25T03:29:30.327Z,23.02
2018-03-25T03:31:57.763Z,24.35
2018-03-25T03:34:25.238Z,24.33
2018-03-25T03:36:52.696Z,23.62
2018-03-25T03:39:20.139Z,25.45
2018-03-25T03:41:47.582Z,23.73
2018-03-25T03:44:15.044Z,22.60
2018-03-25T03:46:42.516Z,24.10
2018-03-25T03:49:09.957Z,22.95
2018-03-25T03:51:37.401Z,24.35
2018-03-25T03:54:04.841Z,22.33
2018-03-25T03:56:32.295Z,24.15
2018-03-25T03:58:59.756Z,23.73
2018-03-25T04:01:27.197Z,24.02
2018-03-25T04:03:54.683Z,22.70
2018-03-25T04:06:22.112Z,22.42
2018-03-25T04:08:49.564Z,23.90
2018-03-25T04:11:17.051Z,23.90
2018-03-25T04:13:44.512Z,23.73
2018-03-25T04:16:11.941Z,24.63
2018-03-25T04:18:39.391Z,22.42
2018-03-25T04:21:06.843Z,25.17
2018-03-25T04:23:34.296Z,24.90
2018-03-25T04:26:01.763Z,23.55
2018-03-25T04:28:29.225Z,24.70
2018-03-25T04:30:56.663Z,24.05
2018-03-25T04:33:24.100Z,23.48
2018-03-25T04:35:51.558Z,23.38
2018-03-25T04:38:19.035Z,23.70
2018-03-25T04:40:46.486Z,23.60
2018-03-25T04:43:13.967Z,23.62
2018-03-25T04:45:41.435Z,23.77
2018-03-25T04:48:08.886Z,21.95
2018-03-25T04:50:36.329Z,22.62
2018-03-25T04:53:03.785Z,24.77
2018-03-25T04:55:31.234Z,25.95
2018-03-25T04:57:58.684Z,26.30
2018-03-25T05:00:26.146Z,26.23
2018-03-25T05:02:53.629Z,27.33
2018-03-25T05:05:21.074Z,22.48
2018-03-25T05:07:48.532Z,24.80
2018-03-25T05:10:16.001Z,22.45
2018-03-25T05:12:43.448Z,23.27
2018-03-25T05:15:10.892Z,21.98
2018-03-25T05:17:38.337Z,21.37
2018-03-25T05:20:05.794Z,22.42
2018-03-25T05:22:33.231Z,21.62
2018-03-25T05:25:00.718Z,23.85
2018-03-25T05:27:28.151Z,22.83
2018-03-25T05:29:55.894Z,22.08
2018-03-25T05:32:23.397Z,23.30
2018-03-25T05:34:50.847Z,21.95
2018-03-25T05:37:18.306Z,20.40
2018-03-25T05:39:45.742Z,23.17
2018-03-25T05:42:13.208Z,21.42
2018-03-25T05:44:40.676Z,22.98
2018-03-25T05:47:08.115Z,22.30
2018-03-25T05:49:35.561Z,24.42
2018-03-25T05:52:03.022Z,25.25
2018-03-25T05:54:30.491Z,24.50
2018-03-25T05:56:57.957Z,23.52
2018-03-25T05:59:25.425Z,24.23
2018-03-25T06:01:53.306Z,24.58
2018-03-25T06:04:20.881Z,23.27
2018-03-25T06:06:48.318Z,22.85
2018-03-25T06:09:15.847Z,23.15
2018-03-25T06:11:43.299Z,22.48
2018-03-25T06:14:10.733Z,22.75
2018-03-25T06:16:38.208Z,22.87
2018-03-25T06:19:05.649Z,23.77
2018-03-25T06:21:33.293Z,21.50
2018-03-25T06:24:00.762Z,22.20
2018-03-25T06:26:28.211Z,21.62
2018-03-25T06:28:55.860Z,21.40
2018-03-25T06:31:24.026Z,23.27
2018-03-25T06:33:51.472Z,22.98
2018-03-25T06:36:18.922Z,21.70
2018-03-25T06:38:46.366Z,23.27
2018-03-25T06:41:13.818Z,24.10
2018-03-25T06:43:41.261Z,24.65
2018-03-25T06:46:08.789Z,23.90
2018-03-25T06:48:36.317Z,22.23
2018-03-25T06:51:03.771Z,24.95
2018-03-25T06:53:31.290Z,22.98
2018-03-25T06:55:58.897Z,25.58
2018-03-25T06:58:26.458Z,21.27
2018-03-25T07:00:53.894Z,20.80
2018-03-25T07:03:21.350Z,23.08
2018-03-25T07:05:48.802Z,23.15
2018-03-25T07:08:16.255Z,22.48
2018-03-25T07:10:43.704Z,21.40
2018-03-25T07:13:11.171Z,23.73
2018-03-25T07:15:38.624Z,23.58
2018-03-25T07:18:06.077Z,22.15
2018-03-25T07:20:33.769Z,23.83
2018-03-25T07:23:01.436Z,24.20
2018-03-25T07:25:28.873Z,24.77
2018-03-25T07:27:56.341Z,23.80
2018-03-25T07:30:23.787Z,26.35
2018-03-25T07:32:51.219Z,25.30
2018-03-25T07:35:18.737Z,26.20
2018-03-25T07:37:46.239Z,26.27
2018-03-25T07:40:13.634Z,26.45
2018-03-25T07:42:41.070Z,25.88
2018-03-25T07:45:08.557Z,27.60
2018-03-25T07:47:36.008Z,26.80
2018-03-25T07:50:03.480Z,26.17
2018-03-25T07:52:30.950Z,29.90
2018-03-25T07:54:58.766Z,30.00
2018-03-25T07:57:26.221Z,26.85
2018-03-25T07:59:53.682Z,26.62
2018-03-25T08:02:21.139Z,28.33
2018-03-25T08:04:48.591Z,28.92
2018-03-25T08:07:16.078Z,30.80
2018-03-25T08:09:43.525Z,28.00
2018-03-25T08:12:11.018Z,29.17
2018-03-25T08:14:38.476Z,29.73
2018-03-25T08:17:06.737Z,29.20
2018-03-25T08:19:34.202Z,29.70
2018-03-25T08:22:01.743Z,30.23
2018-03-25T08:24:29.212Z,31.10
2018-03-25T08:26:56.727Z,32.15
2018-03-25T08:29:24.186Z,29.67
2018-03-25T08:31:51.642Z,32.80
2018-03-25T08:34:19.134Z,31.55
2018-03-25T08:36:46.585Z,28.58
2018-03-25T08:39:14.046Z,29.15
2018-03-25T08:41:41.586Z,31.35
2018-03-25T08:44:09.058Z,30.23
2018-03-25T08:46:36.795Z,28.58
2018-03-25T08:49:04.350Z,29.52
2018-03-25T08:51:31.813Z,30.27
2018-03-25T08:53:59.343Z,30.12
2018-03-25T08:56:26.819Z,30.17
2018-03-25T08:58:54.259Z,30.27
2018-03-25T09:01:21.696Z,29.67
2018-03-25T09:03:49.168Z,29.40
2018-03-25T09:06:16.616Z,30.00
2018-03-25T09:08:44.064Z,31.37
2018-03-25T09:11:11.642Z,30.53
2018-03-25T09:13:39.180Z,30.53
2018-03-25T09:16:06.763Z,29.90
2018-03-25T09:18:34.223Z,28.97
2018-03-25T09:21:01.702Z,30.90
2018-03-25T09:23:29.238Z,31.30
2018-03-25T09:25:56.693Z,30.70
2018-03-25T09:28:24.161Z,31.50
2018-03-25T09:30:51.607Z,31.20
2018-03-25T09:33:19.046Z,30.03
2018-03-25T09:35:46.507Z,30.53
2018-03-25T09:38:13.942Z,30.60
2018-03-25T09:40:41.392Z,28.80
2018-03-25T09:43:08.850Z,30.43
2018-03-25T09:45:36.310Z,29.30
2018-03-25T09:48:03.748Z,31.33
2018-03-25T09:50:31.253Z,28.40
2018-03-25T09:52:58.711Z,28.90
2018-03-25T09:55:26.406Z,27.70
2018-03-25T09:57:53.846Z,28.10
2018-03-25T10:00:26.840Z,27.63
2018-03-25T10:02:59.166Z,29.40
2018-03-25T10:05:26.642Z,29.33
2018-03-25T10:07:54.101Z,28.77
2018-03-25T10:10:21.563Z,27.10
2018-03-25T10:12:49.020Z,27.80
2018-03-25T10:15:16.474Z,26.67
2018-03-25T10:17:43.927Z,29.13
2018-03-25T10:20:11.416Z,28.00
2018-03-25T10:22:38.884Z,28.90
2018-03-25T10:25:06.372Z,28.97
2018-03-25T10:27:33.858Z,28.90
2018-03-25T10:30:01.313Z,27.43
2018-03-25T10:32:28.756Z,30.70
2018-03-25T10:34:57.062Z,32.43
2018-03-25T10:37:25.656Z,27.77
2018-03-25T10:39:53.225Z,30.10
2018-03-25T10:42:20.666Z,30.30
2018-03-25T10:44:48.105Z,35.53
2018-03-25T10:47:15.571Z,30.47
2018-03-25T10:49:43.032Z,29.63
2018-03-25T10:52:10.473Z,34.13
2018-03-25T10:54:37.935Z,28.93
2018-03-25T10:57:05.402Z,27.93
2018-03-25T10:59:32.869Z,28.80
2018-03-25T11:02:00.338Z,28.73
2018-03-25T11:04:27.903Z,32.80
2018-03-25T11:06:55.338Z,36.10
2018-03-25T11:09:22.796Z,29.50
2018-03-25T11:11:50.257Z,30.90
2018-03-25T11:14:17.716Z,30.60
2018-03-25T11:16:45.175Z,28.70
2018-03-25T11:19:12.622Z,29.83
2018-03-25T11:21:40.076Z,30.20
2018-03-25T11:24:07.527Z,30.87
2018-03-25T11:26:34.990Z,28.60
2018-03-25T11:29:02.593Z,28.07
2018-03-25T11:31:30.054Z,29.97
2018-03-25T11:33:57.541Z,27.60
2018-03-25T11:36:25.258Z,29.30
2018-03-25T11:38:52.711Z,25.73
2018-03-25T11:41:20.191Z,28.63
2018-03-25T11:43:47.696Z,30.07
2018-03-25T11:46:15.169Z,27.53
2018-03-25T11:48:42.790Z,27.33
2018-03-25T11:51:10.274Z,28.13
2018-03-25T11:53:37.716Z,26.80
2018-03-25T11:56:05.574Z,28.37
2018-03-25T11:58:33.076Z,25.83
2018-03-25T12:01:00.547Z,27.53
2018-03-25T12:03:28.034Z,28.00
2018-03-25T12:05:55.484Z,25.80
2018-03-25T12:08:22.963Z,25.10
2018-03-25T12:10:50.437Z,26.33
2018-03-25T12:13:17.988Z,26.47
2018-03-25T12:15:45.437Z,25.27
2018-03-25T12:18:12.930Z,25.87
2018-03-25T12:20:40.419Z,27.00
2018-03-25T12:23:07.874Z,27.03
2018-03-25T12:25:35.335Z,24.07
2018-03-25T12:28:02.796Z,22.87
2018-03-25T12:30:31.152Z,26.90
2018-03-25T12:33:00.467Z,24.47
2018-03-25T12:35:30.432Z,23.50
2018-03-25T12:37:57.887Z,22.83
2018-03-25T12:40:25.330Z,20.40
2018-03-25T12:42:52.785Z,22.13
2018-03-25T12:45:20.230Z,22.50
2018-03-25T12:47:47.722Z,23.90
2018-03-25T12:50:15.165Z,23.13
2018-03-25T12:52:42.711Z,24.10
2018-03-25T12:55:10.448Z,24.07
2018-03-25T12:57:38.044Z,20.10
2018-03-25T13:00:05.513Z,20.23
2018-03-25T13:02:32.994Z,16.50
2018-03-25T13:05:00.468Z,16.93
2018-03-25T13:07:27.918Z,16.50
2018-03-25T13:09:55.373Z,18.27
2018-03-25T13:12:22.838Z,15.37
2018-03-25T13:14:50.300Z,14.43
2018-03-25T13:17:17.765Z,15.13
2018-03-25T13:19:45.215Z,14.67
2018-03-25T13:22:12.673Z,16.07
2018-03-25T13:24:40.156Z,13.97
2018-03-25T13:27:10.583Z,14.63
2018-03-25T13:29:38.064Z,13.13
2018-03-25T13:32:05.538Z,14.40
2018-03-25T13:34:33.013Z,14.47
2018-03-25T13:37:00.481Z,17.63
2018-03-25T13:39:27.934Z,15.90
2018-03-25T13:41:55.381Z,15.33
2018-03-25T13:44:22.847Z,16.13
2018-03-25T13:46:50.297Z,16.03
2018-03-25T13:49:17.743Z,19.40
2018-03-25T13:51:45.210Z,15.03
2018-03-25T13:54:12.648Z,18.00
2018-03-25T13:56:40.118Z,19.40
2018-03-25T13:59:07.563Z,18.93
2018-03-25T14:01:35.042Z,16.83
2018-03-25T14:04:02.494Z,16.67
2018-03-25T14:06:29.987Z,18.80
2018-03-25T14:08:57.418Z,18.90
2018-03-25T14:11:26.075Z,17.77
2018-03-25T14:13:53.524Z,19.37
2018-03-25T14:16:20.972Z,19.30
2018-03-25T14:18:48.435Z,19.70
2018-03-25T14:21:16.174Z,16.60
2018-03-25T14:23:43.633Z,16.50
2018-03-25T14:26:15.694Z,19.00
2018-03-25T14:28:43.214Z,18.50
2018-03-25T14:31:10.695Z,19.33
2018-03-25T14:33:38.152Z,17.20
2018-03-25T14:36:05.629Z,19.33
2018-03-25T14:38:33.111Z,18.90
2018-03-25T14:41:00.657Z,19.43
2018-03-25T14:43:28.114Z,20.20
2018-03-25T14:45:55.556Z,18.30
2018-03-25T14:48:23.010Z,19.80
2018-03-25T14:50:50.461Z,23.00
2018-03-25T14:53:17.927Z,16.70
2018-03-25T14:55:45.358Z,16.23
2018-03-25T14:58:12.808Z,16.03
2018-03-25T15:00:40.334Z,19.00
2018-03-25T15:03:07.791Z,19.40
2018-03-25T15:05:35.269Z,15.83
2018-03-25T15:08:02.751Z,19.00
2018-03-25T15:10:30.190Z,17.90
2018-03-25T15:12:57.643Z,19.50
2018-03-25T15:15:25.142Z,19.70
2018-03-25T15:17:53.060Z,20.00
2018-03-25T15:20:20.501Z,20.10
2018-03-25T15:22:47.960Z,18.90
2018-03-25T15:25:17.471Z,21.50
2018-03-25T15:27:56.631Z,18.77
2018-03-25T15:30:25.175Z,19.10
2018-03-25T15:32:56.429Z,20.07
2018-03-25T15:35:25.530Z,20.50
2018-03-25T15:37:54.177Z,18.90
2018-03-25T15:40:24.367Z,20.20
2018-03-25T15:42:54.013Z,20.70
2018-03-25T15:45:24.312Z,21.23
2018-03-25T15:47:53.316Z,19.90
2018-03-25T15:50:22.501Z,22.30
2018-03-25T15:52:51.119Z,22.40
2018-03-25T15:55:19.168Z,19.93
2018-03-25T15:57:47.555Z,21.20
2018-03-25T16:00:15.883Z,20.43
2018-03-25T16:02:43.869Z,19.10
2018-03-25T16:05:12.415Z,20.17
2018-03-25T16:07:41.364Z,22.37
2018-03-25T16:10:23.126Z,21.30
2018-03-25T16:12:51.867Z,21.73
2018-03-25T16:15:22.600Z,21.97
2018-03-25T16:17:53.077Z,22.90
2018-03-25T16:20:21.768Z,27.10
2018-03-25T16:22:51.072Z,21.47
2018-03-25T16:25:20.121Z,22.90
2018-03-25T16:27:48.016Z,20.73
2018-03-25T16:30:15.613Z,20.80
2018-03-25T16:32:43.324Z,21.27
2018-03-25T16:35:15.514Z,21.17
2018-03-25T16:37:43.263Z,22.70
2018-03-25T16:40:10.967Z,20.77
2018-03-25T16:42:38.820Z,21.30
2018-03-25T16:45:06.559Z,23.00
2018-03-25T16:47:34.845Z,18.50
2018-03-25T16:50:09.542Z,19.40
2018-03-25T16:52:37.305Z,19.50
2018-03-25T16:55:05.229Z,19.73
2018-03-25T16:57:32.898Z,20.10
2018-03-25T17:00:00.450Z,20.57
2018-03-25T17:02:28.830Z,19.10
2018-03-25T17:04:56.382Z,19.60
2018-03-25T17:07:24.158Z,24.07
2018-03-25T17:09:53.427Z,19.63
2018-03-25T17:12:21.001Z,19.17
2018-03-25T17:14:48.453Z,19.60
2018-03-25T17:17:16.434Z,17.27
2018-03-25T17:19:44.290Z,18.23
2018-03-25T17:22:13.096Z,22.40
2018-03-25T17:24:42.279Z,16.33
2018-03-25T17:27:10.978Z,16.93
2018-03-25T17:29:39.971Z,17.00
2018-03-25T17:32:08.861Z,16.97
2018-03-25T17:34:37.432Z,18.00
2018-03-25T17:37:05.192Z,18.30
2018-03-25T17:39:32.836Z,16.60
2018-03-25T17:42:00.614Z,18.10
2018-03-25T17:44:28.179Z,18.37
2018-03-25T17:46:55.853Z,17.90
2018-03-25T17:49:23.560Z,18.27
2018-03-25T17:51:51.135Z,19.33
2018-03-25T17:54:18.762Z,19.30
2018-03-25T17:56:46.518Z,18.40
2018-03-25T17:59:22.511Z,19.00
2018-03-25T18:01:53.165Z,18.50
2018-03-25T18:04:20.625Z,17.50
2018-03-25T18:06:48.321Z,19.60
2018-03-25T18:09:15.776Z,18.27
2018-03-25T18:11:43.222Z,19.57
2018-03-25T18:14:10.733Z,22.27
2018-03-25T18:16:38.184Z,19.00
2018-03-25T18:19:05.746Z,18.77
2018-03-25T18:21:33.197Z,20.00
2018-03-25T18:24:00.650Z,19.27
2018-03-25T18:26:28.133Z,20.63
2018-03-25T18:28:55.567Z,20.50
2018-03-25T18:31:23.007Z,20.40
2018-03-25T18:33:50.454Z,19.60
2018-03-25T18:36:18.964Z,18.83
2018-03-25T18:38:46.482Z,20.50
2018-03-25T18:41:13.919Z,19.70
2018-03-25T18:43:41.589Z,20.57
2018-03-25T18:46:09.044Z,20.83
2018-03-25T18:48:36.486Z,20.77
2018-03-25T18:51:03.916Z,20.07
2018-03-25T18:53:31.406Z,20.47
2018-03-25T18:56:00.357Z,20.80
2018-03-25T18:58:27.838Z,21.13
2018-03-25T19:00:55.302Z,21.27
2018-03-25T19:03:22.731Z,22.30
2018-03-25T19:05:50.190Z,21.90
2018-03-25T19:08:30.094Z,22.80
2018-03-25T19:11:14.321Z,23.70
2018-03-25T19:13:47.913Z,22.40
2018-03-25T19:16:15.806Z,22.33
2018-03-25T19:18:43.257Z,23.00
2018-03-25T19:21:10.713Z,21.70
2018-03-25T19:23:44.239Z,22.02
2018-03-25T19:26:11.899Z,20.50
2018-03-25T19:28:39.374Z,22.17
2018-03-25T19:31:06.826Z,22.30
2018-03-25T19:33:34.348Z,22.90
2018-03-25T19:36:02.113Z,20.97
2018-03-25T19:38:29.550Z,23.07
2018-03-25T19:40:57.010Z,22.53
2018-03-25T19:43:24.449Z,21.17
2018-03-25T19:45:51.890Z,21.03
2018-03-25T19:48:19.341Z,21.27
2018-03-25T19:50:46.797Z,23.27
2018-03-25T19:53:14.260Z,21.07
2018-03-25T19:55:41.713Z,21.77
2018-03-25T19:58:09.201Z,21.83
2018-03-25T20:00:36.644Z,23.17
2018-03-25T20:03:04.150Z,22.85
2018-03-25T20:05:31.647Z,21.80
2018-03-25T20:07:59.114Z,22.25
2018-03-25T20:10:26.571Z,21.93
2018-03-25T20:12:54.011Z,22.30
2018-03-25T20:15:21.470Z,23.57
2018-03-25T20:17:48.915Z,22.87
2018-03-25T20:20:16.463Z,22.00
2018-03-25T20:22:43.950Z,25.07
2018-03-25T20:25:11.394Z,24.47
2018-03-25T20:27:38.855Z,21.33
2018-03-25T20:30:06.417Z,21.23
2018-03-25T20:32:33.874Z,21.07
2018-03-25T20:35:01.314Z,21.67
2018-03-25T20:37:28.760Z,21.73
2018-03-25T20:39:56.215Z,22.37
2018-03-25T20:42:23.677Z,20.93
2018-03-25T20:44:51.136Z,23.80
2018-03-25T20:47:18.589Z,20.90
2018-03-25T20:49:46.707Z,21.40
2018-03-25T20:52:15.613Z,21.30
2018-03-25T20:54:43.073Z,19.92
2018-03-25T20:57:10.548Z,20.57
2018-03-25T20:59:38.107Z,21.13
2018-03-25T21:02:05.730Z,22.40
2018-03-25T21:04:33.195Z,23.00
2018-03-25T21:07:00.906Z,24.07
2018-03-25T21:09:28.388Z,21.73
2018-03-25T21:11:55.835Z,23.47
2018-03-25T21:14:23.288Z,24.43
2018-03-25T21:16:50.747Z,20.47
2018-03-25T21:19:18.204Z,23.33
2018-03-25T21:21:45.694Z,23.70
2018-03-25T21:24:13.146Z,22.35
2018-03-25T21:26:40.594Z,22.57
2018-03-25T21:29:08.049Z,23.08
2018-03-25T21:31:35.541Z,20.50
2018-03-25T21:34:04.606Z,22.55
2018-03-25T21:36:32.048Z,22.30
2018-03-25T21:38:59.506Z,22.48
2018-03-25T21:41:26.975Z,23.92
2018-03-25T21:43:55.537Z,21.27
2018-03-25T21:46:23.001Z,21.23
2018-03-25T21:48:50.446Z,22.37
2018-03-25T21:51:17.904Z,23.70
2018-03-25T21:53:46.760Z,23.40
2018-03-25T21:56:14.639Z,24.98
2018-03-25T21:58:42.082Z,25.17
2018-03-25T22:01:09.713Z,25.17
2018-03-25T22:03:37.172Z,23.67
2018-03-25T22:06:04.623Z,28.77
2018-03-25T22:08:32.076Z,26.25
2018-03-25T22:10:59.573Z,24.90
2018-03-25T22:13:27.231Z,24.60
2018-03-25T22:15:56.668Z,25.52
2018-03-25T22:18:30.844Z,25.05
2018-03-25T22:20:58.313Z,24.65
2018-03-25T22:23:25.774Z,25.45
2018-03-25T22:25:53.238Z,25.73
2018-03-25T22:28:20.880Z,26.08
2018-03-25T22:30:48.345Z,26.45
2018-03-25T22:33:15.801Z,24.45
2018-03-25T22:35:43.370Z,26.23
2018-03-25T22:38:10.838Z,25.67
2018-03-25T22:40:38.361Z,24.73
2018-03-25T22:43:05.819Z,25.50
2018-03-25T22:45:33.280Z,26.35
2018-03-25T22:48:00.720Z,24.75
2018-03-25T22:50:28.184Z,25.33
2018-03-25T22:52:55.659Z,23.08
2018-03-25T22:55:24.266Z,25.20
2018-03-25T22:57:55.029Z,26.45
2018-03-25T23:00:22.495Z,23.02
2018-03-25T23:02:50.307Z,23.75
2018-03-25T23:05:17.757Z,23.55
2018-03-25T23:07:45.204Z,25.80
2018-03-25T23:10:12.689Z,24.42
2018-03-25T23:12:40.139Z,24.80
2018-03-25T23:15:07.599Z,24.95
2018-03-25T23:17:41.139Z,24.08
2018-03-25T23:20:08.646Z,23.75
2018-03-25T23:22:36.466Z,23.67
2018-03-25T23:25:04.109Z,25.23
2018-03-25T23:27:31.634Z,22.37
2018-03-25T23:29:59.075Z,26.75
2018-03-25T23:32:26.618Z,24.35
2018-03-25T23:34:54.087Z,26.30
2018-03-25T23:37:21.543Z,24.75
2018-03-25T23:39:49.624Z,24.35
2018-03-25T23:42:17.073Z,23.33
2018-03-25T23:44:44.520Z,24.35
2018-03-25T23:47:12.006Z,23.85
2018-03-25T23:49:39.464Z,24.45
2018-03-25T23:52:06.918Z,23.55
2018-03-25T23:54:34.383Z,25.77
2018-03-25T23:57:02.795Z,23.75
2018-03-25T23:59:30.395Z,22.90
